Time;durP1;ratioP1;P1;durP2;ratioP2;P2;SDS_P1;SDS_P2;PMS_P1;PMS_P2;Temp;Humidity;BMP_temperature;BMP_pressure;BME280_temperature;BME280_humidity;BME280_pressure;Samples;Min_cycle;Max_cycle;Signal;HPM_P1;HPM_P2
2023/09/30 00:01:22;;;;;;;14.57;4.37;;;13.10;99.90;;;;;;5073673;28;20060;-66
2023/09/30 00:03:48;;;;;;;14.60;3.93;;;13.10;99.90;;;;;;5072130;28;20909;-65
2023/09/30 00:06:13;;;;;;;18.47;4.00;;;13.10;99.90;;;;;;5074415;28;20514;-65
2023/09/30 00:08:39;;;;;;;18.60;4.63;;;13.00;99.90;;;;;;5073294;28;20507;-65
2023/09/30 00:11:05;;;;;;;16.67;5.50;;;13.00;99.90;;;;;;5073663;28;20045;-65
2023/09/30 00:13:31;;;;;;;12.07;3.00;;;13.00;99.90;;;;;;5073529;28;20091;-65
2023/09/30 00:15:58;;;;;;;17.13;4.80;;;13.10;99.90;;;;;;5073228;28;20820;-65
2023/09/30 00:18:23;;;;;;;15.47;3.53;;;13.10;99.90;;;;;;5073523;28;20358;-65
2023/09/30 00:20:49;;;;;;;13.40;4.20;;;13.10;99.90;;;;;;5073538;28;20370;-65
2023/09/30 00:23:15;;;;;;;9.77;2.73;;;13.00;99.90;;;;;;5072493;28;20048;-65
2023/09/30 00:25:41;;;;;;;18.63;3.73;;;13.00;99.90;;;;;;5072062;28;20543;-65
2023/09/30 00:28:07;;;;;;;21.43;4.40;;;13.00;99.90;;;;;;5073410;28;20481;-65
2023/09/30 00:30:33;;;;;;;13.33;3.47;;;13.00;99.90;;;;;;5073205;28;20055;-65
2023/09/30 00:32:59;;;;;;;16.17;4.10;;;13.00;99.90;;;;;;5073149;28;20481;-65
2023/09/30 00:35:25;;;;;;;18.37;4.80;;;13.00;99.90;;;;;;5073240;28;20040;-65
2023/09/30 00:37:51;;;;;;;24.13;4.40;;;13.00;99.90;;;;;;5074179;28;20120;-65
2023/09/30 00:40:17;;;;;;;13.67;3.83;;;13.00;99.90;;;;;;5073821;28;20325;-66
2023/09/30 00:42:42;;;;;;;17.40;4.63;;;13.00;99.90;;;;;;5073875;28;20100;-65
2023/09/30 00:45:10;;;;;;;11.20;4.07;;;13.00;99.90;;;;;;5074062;28;20128;-65
2023/09/30 00:47:36;;;;;;;12.03;3.40;;;13.00;99.90;;;;;;5073778;28;20040;-65
2023/09/30 00:50:04;;;;;;;15.97;4.17;;;13.00;99.90;;;;;;5072942;28;20640;-65
2023/09/30 00:52:34;;;;;;;12.30;4.00;;;13.00;99.90;;;;;;5073165;28;20044;-66
2023/09/30 00:55:01;;;;;;;18.53;4.43;;;13.10;99.90;;;;;;5073123;28;20373;-65
2023/09/30 00:57:27;;;;;;;14.77;4.17;;;13.10;99.90;;;;;;5073128;28;20275;-65
2023/09/30 00:59:54;;;;;;;15.27;4.00;;;13.10;99.90;;;;;;5073163;28;20637;-65
2023/09/30 01:02:22;;;;;;;15.87;4.43;;;13.10;99.90;;;;;;5073094;28;20293;-65
2023/09/30 01:04:48;;;;;;;15.63;4.60;;;13.10;99.90;;;;;;5072219;28;20634;-65
2023/09/30 01:07:14;;;;;;;16.03;4.30;;;13.20;99.90;;;;;;5073619;28;20355;-65
2023/09/30 01:09:39;;;;;;;14.97;4.07;;;13.10;99.90;;;;;;5072807;28;20048;-65
2023/09/30 01:12:07;;;;;;;13.77;3.70;;;13.20;99.90;;;;;;5073301;28;20049;-65
2023/09/30 01:14:42;;;;;;;18.73;4.23;;;13.20;99.90;;;;;;5072629;28;20509;-65
2023/09/30 01:17:08;;;;;;;15.10;4.65;;;13.20;99.90;;;;;;5071810;28;20689;-65
2023/09/30 01:19:35;;;;;;;17.10;4.43;;;13.20;99.90;;;;;;5074075;28;20070;-65
2023/09/30 01:22:05;;;;;;;13.17;4.20;;;13.20;99.90;;;;;;5076456;28;20501;-65
2023/09/30 01:24:38;;;;;;;13.23;3.80;;;13.20;99.90;;;;;;5076675;28;20271;-65
2023/09/30 01:27:03;;;;;;;14.23;4.60;;;13.20;99.90;;;;;;5076619;28;20276;-65
2023/09/30 01:29:29;;;;;;;12.77;4.10;;;13.20;99.90;;;;;;5076615;28;20397;-65
2023/09/30 01:31:55;;;;;;;13.37;4.23;;;13.20;99.90;;;;;;5077707;28;20051;-65
2023/09/30 01:34:21;;;;;;;11.77;3.67;;;13.20;99.90;;;;;;5076496;28;20123;-66
2023/09/30 01:36:47;;;;;;;12.67;3.53;;;13.30;99.90;;;;;;5076445;28;20044;-66
2023/09/30 01:39:13;;;;;;;12.53;3.87;;;13.40;99.90;;;;;;5076632;28;20048;-65
2023/09/30 01:41:42;;;;;;;14.03;4.20;;;13.40;99.90;;;;;;5076437;28;20045;-65
2023/09/30 01:44:09;;;;;;;13.33;4.00;;;13.40;99.90;;;;;;5075628;28;20757;-65
2023/09/30 01:46:34;;;;;;;13.40;3.93;;;13.40;99.90;;;;;;5076255;28;20286;-65
2023/09/30 01:49:00;;;;;;;14.47;3.77;;;13.40;99.90;;;;;;5076353;28;20275;-65
2023/09/30 01:51:27;;;;;;;12.63;3.60;;;13.40;99.90;;;;;;5077083;28;20115;-65
2023/09/30 01:53:53;;;;;;;12.70;3.40;;;13.40;99.90;;;;;;5076427;28;20058;-65
2023/09/30 01:56:19;;;;;;;11.53;3.00;;;13.40;99.90;;;;;;5076179;28;20275;-65
2023/09/30 01:58:44;;;;;;;13.50;3.60;;;13.40;99.90;;;;;;5076602;28;20491;-65
2023/09/30 02:01:10;;;;;;;16.17;3.90;;;13.50;99.90;;;;;;5074542;28;20048;-65
2023/09/30 02:03:36;;;;;;;11.47;3.07;;;13.50;99.90;;;;;;5074913;28;20048;-65
2023/09/30 02:06:01;;;;;;;13.30;3.60;;;13.50;99.90;;;;;;5074779;28;20080;-65
2023/09/30 02:08:27;;;;;;;13.13;3.07;;;13.60;99.90;;;;;;5075941;28;20074;-65
2023/09/30 02:10:53;;;;;;;13.13;3.40;;;13.60;99.90;;;;;;5058035;28;20428;-65
2023/09/30 02:13:19;;;;;;;13.37;3.60;;;13.60;99.90;;;;;;5076367;28;20393;-65
2023/09/30 02:15:46;;;;;;;12.27;3.43;;;13.60;99.90;;;;;;5075976;28;20307;-65
2023/09/30 02:18:12;;;;;;;9.50;2.93;;;13.60;99.90;;;;;;5076666;28;20119;-65
2023/09/30 02:20:39;;;;;;;14.57;3.00;;;13.70;99.90;;;;;;5075714;28;20045;-65
2023/09/30 02:23:11;;;;;;;9.33;3.47;;;13.70;99.90;;;;;;5075668;28;20044;-65
2023/09/30 02:25:37;;;;;;;13.67;3.20;;;13.70;99.90;;;;;;5076459;28;20669;-65
2023/09/30 02:28:04;;;;;;;18.53;3.67;;;13.70;99.90;;;;;;5075592;28;20750;-67
2023/09/30 02:30:30;;;;;;;9.40;3.37;;;13.60;99.90;;;;;;5075185;28;20348;-67
2023/09/30 02:32:56;;;;;;;16.20;3.77;;;13.60;99.90;;;;;;5075369;28;20102;-67
2023/09/30 02:35:22;;;;;;;13.30;3.80;;;13.60;99.90;;;;;;5075297;28;20299;-67
2023/09/30 02:37:51;;;;;;;11.50;3.10;;;13.60;99.90;;;;;;5075302;28;20053;-67
2023/09/30 02:40:18;;;;;;;19.10;4.17;;;13.60;99.90;;;;;;5075339;28;20087;-67
2023/09/30 02:42:44;;;;;;;12.50;3.50;;;13.60;99.90;;;;;;5075286;28;20041;-67
2023/09/30 02:45:11;;;;;;;7.60;3.07;;;13.70;99.90;;;;;;5075796;28;20275;-67
2023/09/30 02:47:37;;;;;;;14.47;3.30;;;13.70;99.90;;;;;;5075149;28;20070;-67
2023/09/30 02:50:06;;;;;;;9.90;3.30;;;13.60;99.90;;;;;;5075169;28;20053;-67
2023/09/30 02:52:32;;;;;;;15.50;3.93;;;13.60;99.90;;;;;;5075468;28;20290;-67
2023/09/30 02:54:58;;;;;;;10.63;3.03;;;13.60;99.90;;;;;;5075554;28;20049;-67
2023/09/30 02:57:25;;;;;;;10.67;3.40;;;13.60;99.90;;;;;;5075546;28;20052;-67
2023/09/30 02:59:54;;;;;;;13.27;4.03;;;13.50;99.90;;;;;;5074895;28;20041;-67
2023/09/30 03:02:21;;;;;;;12.53;3.77;;;13.50;99.90;;;;;;5074751;28;20037;-67
2023/09/30 03:04:47;;;;;;;14.33;3.87;;;13.50;99.90;;;;;;5075583;28;20290;-67
2023/09/30 03:07:16;;;;;;;11.37;3.80;;;13.50;99.90;;;;;;5075088;28;20329;-67
2023/09/30 03:09:42;;;;;;;16.40;4.20;;;13.40;99.90;;;;;;5075276;28;20326;-67
2023/09/30 03:12:08;;;;;;;10.57;3.20;;;13.40;99.90;;;;;;5074662;28;20290;-67
2023/09/30 03:14:34;;;;;;;11.40;3.33;;;13.40;99.90;;;;;;5074489;28;20048;-66
2023/09/30 03:17:00;;;;;;;9.97;3.47;;;13.30;99.90;;;;;;5074249;28;20294;-67
2023/09/30 03:19:26;;;;;;;16.83;3.60;;;13.30;99.90;;;;;;5074581;28;20048;-67
2023/09/30 03:21:52;;;;;;;12.17;3.37;;;13.30;99.90;;;;;;5074442;28;20036;-66
2023/09/30 03:24:17;;;;;;;11.37;3.00;;;13.20;99.90;;;;;;5073307;28;20128;-67
2023/09/30 03:26:43;;;;;;;14.63;3.60;;;13.20;99.90;;;;;;5073466;28;20151;-67
2023/09/30 03:29:09;;;;;;;12.30;3.63;;;13.20;99.90;;;;;;5074345;28;20055;-67
2023/09/30 03:31:36;;;;;;;13.80;3.70;;;13.20;99.90;;;;;;5074253;28;20091;-68
2023/09/30 03:34:05;;;;;;;13.10;3.43;;;13.20;99.90;;;;;;5074198;28;20282;-67
2023/09/30 03:36:30;;;;;;;14.20;4.27;;;13.20;99.90;;;;;;5074271;28;20283;-67
2023/09/30 03:39:04;;;;;;;15.63;4.60;;;13.10;99.90;;;;;;5074788;28;20282;-67
2023/09/30 03:41:31;;;;;;;15.13;3.30;;;13.10;99.90;;;;;;5073178;28;20060;-67
2023/09/30 03:43:57;;;;;;;15.37;4.23;;;13.10;99.90;;;;;;5073468;28;20509;-67
2023/09/30 03:46:22;;;;;;;15.27;3.67;;;13.00;99.90;;;;;;5074115;28;20283;-67
2023/09/30 03:48:48;;;;;;;14.80;4.17;;;13.10;99.90;;;;;;5074833;28;20051;-67
2023/09/30 03:51:15;;;;;;;15.00;4.63;;;13.00;99.90;;;;;;5074023;28;20497;-67
2023/09/30 03:53:42;;;;;;;13.67;3.80;;;13.00;99.90;;;;;;5074505;28;20048;-67
2023/09/30 03:56:08;;;;;;;11.53;4.17;;;13.00;99.90;;;;;;5073838;28;20318;-67
2023/09/30 03:58:34;;;;;;;12.30;4.70;;;12.90;99.90;;;;;;5073846;28;20283;-67
2023/09/30 04:01:00;;;;;;;12.40;4.10;;;12.90;99.90;;;;;;5074120;28;20340;-67
2023/09/30 04:03:29;;;;;;;14.10;4.80;;;12.90;99.90;;;;;;5073850;28;20044;-67
2023/09/30 04:05:55;;;;;;;12.90;4.53;;;12.90;99.90;;;;;;5073679;28;20271;-67
2023/09/30 04:08:22;;;;;;;14.23;4.87;;;12.90;99.90;;;;;;5074058;28;20366;-67
2023/09/30 04:10:48;;;;;;;17.30;4.63;;;12.90;99.90;;;;;;5073738;28;20080;-67
2023/09/30 04:13:13;;;;;;;15.53;4.73;;;12.90;99.90;;;;;;5073732;28;20301;-67
2023/09/30 04:15:39;;;;;;;11.70;4.73;;;12.90;99.90;;;;;;5073656;28;20052;-67
2023/09/30 04:18:05;;;;;;;16.30;4.97;;;12.90;99.90;;;;;;5073494;28;20056;-67
2023/09/30 04:20:31;;;;;;;11.40;4.40;;;12.90;99.90;;;;;;5074028;28;20051;-67
2023/09/30 04:22:58;;;;;;;15.97;4.70;;;13.00;99.90;;;;;;5073775;28;20282;-67
2023/09/30 04:25:24;;;;;;;13.13;5.30;;;13.00;99.90;;;;;;5073571;28;20298;-67
2023/09/30 04:27:50;;;;;;;12.70;5.87;;;13.00;99.90;;;;;;5074298;28;20286;-67
2023/09/30 04:30:17;;;;;;;15.27;5.70;;;13.00;99.90;;;;;;5073794;28;20362;-67
2023/09/30 04:32:43;;;;;;;12.43;4.60;;;12.90;99.90;;;;;;5073585;28;20117;-68
2023/09/30 04:35:10;;;;;;;20.00;6.57;;;12.90;99.90;;;;;;5073984;28;20382;-67
2023/09/30 04:37:37;;;;;;;17.17;6.07;;;13.00;99.90;;;;;;5073448;28;20315;-67
2023/09/30 04:40:19;;;;;;;15.47;5.87;;;13.00;99.90;;;;;;5073307;28;20283;-67
2023/09/30 04:42:49;;;;;;;14.70;6.03;;;12.90;99.90;;;;;;5073664;28;20275;-68
2023/09/30 04:45:16;;;;;;;16.70;6.57;;;12.90;99.90;;;;;;5073817;28;20275;-67
2023/09/30 04:47:44;;;;;;;15.20;5.53;;;12.90;99.90;;;;;;5073607;28;20329;-67
2023/09/30 04:50:11;;;;;;;16.87;5.60;;;12.90;99.90;;;;;;5073282;28;20362;-67
2023/09/30 04:52:38;;;;;;;17.03;5.70;;;12.90;99.90;;;;;;5073447;28;20283;-67
2023/09/30 04:55:04;;;;;;;16.70;6.87;;;12.90;99.90;;;;;;5076848;28;20299;-67
2023/09/30 04:57:31;;;;;;;15.07;5.70;;;12.80;99.90;;;;;;5077381;28;20271;-67
2023/09/30 04:59:57;;;;;;;17.50;5.80;;;12.80;99.90;;;;;;5076849;28;20783;-67
2023/09/30 05:02:24;;;;;;;11.77;5.57;;;12.80;99.90;;;;;;5077237;28;20377;-67
2023/09/30 05:04:50;;;;;;;13.93;6.07;;;12.80;99.90;;;;;;5077862;28;20314;-67
2023/09/30 05:07:16;;;;;;;11.33;5.47;;;12.80;99.90;;;;;;5077098;28;20325;-67
2023/09/30 05:09:42;;;;;;;18.17;6.30;;;12.70;99.90;;;;;;5077085;28;20044;-67
2023/09/30 05:12:09;;;;;;;16.60;7.30;;;12.70;99.90;;;;;;5077489;28;20158;-67
2023/09/30 05:14:36;;;;;;;14.23;6.47;;;12.70;99.90;;;;;;5076844;28;20052;-67
2023/09/30 05:17:04;;;;;;;21.53;7.83;;;12.70;99.90;;;;;;5076772;28;20378;-67
2023/09/30 05:19:34;;;;;;;15.47;6.97;;;12.70;99.90;;;;;;5077338;28;20294;-67
2023/09/30 05:22:01;;;;;;;15.53;7.10;;;12.70;99.90;;;;;;5076678;28;20348;-67
2023/09/30 05:24:28;;;;;;;15.40;6.97;;;12.70;99.90;;;;;;5077282;28;20366;-67
2023/09/30 05:26:54;;;;;;;15.37;7.40;;;12.70;99.90;;;;;;5076674;28;20279;-67
2023/09/30 05:29:20;;;;;;;15.83;7.47;;;12.60;99.90;;;;;;5076670;28;20285;-67
2023/09/30 05:31:46;;;;;;;15.17;7.27;;;12.60;99.90;;;;;;5076845;28;20390;-67
2023/09/30 05:34:12;;;;;;;19.27;8.70;;;12.60;99.90;;;;;;5076404;28;20295;-67
2023/09/30 05:36:38;;;;;;;19.13;8.30;;;12.60;99.90;;;;;;5075356;28;20289;-67
2023/09/30 05:39:04;;;;;;;20.00;8.30;;;12.60;99.90;;;;;;5076114;28;20420;-67
2023/09/30 05:41:33;;;;;;;21.13;8.33;;;12.60;99.90;;;;;;5076422;28;20048;-67
2023/09/30 05:43:59;;;;;;;20.13;8.40;;;12.60;99.90;;;;;;5075408;28;20286;-67
2023/09/30 05:46:27;;;;;;;16.13;8.77;;;12.60;99.90;;;;;;5076357;28;20293;-67
2023/09/30 05:48:53;;;;;;;18.53;7.63;;;12.60;99.90;;;;;;5076296;28;20084;-67
2023/09/30 05:51:18;;;;;;;17.93;9.20;;;12.60;99.90;;;;;;5076233;28;20310;-67
2023/09/30 05:53:45;;;;;;;18.27;8.93;;;12.60;99.90;;;;;;5076462;28;20476;-67
2023/09/30 05:56:15;;;;;;;18.23;8.67;;;12.60;99.90;;;;;;5058395;28;20048;-67
2023/09/30 05:58:42;;;;;;;20.17;8.33;;;12.60;99.90;;;;;;5076227;28;20743;-67
2023/09/30 06:01:10;;;;;;;21.77;8.40;;;12.60;99.90;;;;;;5076116;28;20358;-67
2023/09/30 06:03:39;;;;;;;15.83;7.37;;;12.60;99.90;;;;;;5076633;28;20274;-67
2023/09/30 06:06:12;;;;;;;15.63;7.17;;;12.60;99.90;;;;;;5075380;28;20279;-67
2023/09/30 06:08:38;;;;;;;15.63;7.70;;;12.60;99.90;;;;;;5076031;28;20328;-67
2023/09/30 06:11:04;;;;;;;13.97;8.20;;;12.60;99.90;;;;;;5075976;28;20361;-67
2023/09/30 06:13:31;;;;;;;19.17;9.10;;;12.70;99.90;;;;;;5075970;28;20366;-67
2023/09/30 06:15:58;;;;;;;17.00;9.17;;;12.70;99.90;;;;;;5075800;28;20080;-68
2023/09/30 06:18:24;;;;;;;16.73;9.40;;;12.70;99.90;;;;;;5075886;28;20379;-66
2023/09/30 06:20:50;;;;;;;15.33;8.47;;;12.80;99.90;;;;;;5075832;28;20353;-67
2023/09/30 06:23:16;;;;;;;16.30;7.67;;;12.80;99.90;;;;;;5075810;28;20072;-67
2023/09/30 06:25:42;;;;;;;17.50;8.60;;;12.80;99.90;;;;;;5075980;28;20267;-67
2023/09/30 06:28:09;;;;;;;15.97;7.97;;;12.90;99.90;;;;;;5075606;28;20354;-67
2023/09/30 06:30:35;;;;;;;17.67;8.23;;;12.90;99.90;;;;;;5075552;28;20322;-66
2023/09/30 06:33:01;;;;;;;15.83;8.07;;;12.90;99.90;;;;;;5076331;28;20318;-67
2023/09/30 06:35:29;;;;;;;17.63;8.13;;;13.00;99.90;;;;;;5075427;28;20040;-67
2023/09/30 06:37:55;;;;;;;17.77;8.20;;;13.00;99.90;;;;;;5076004;28;20344;-67
2023/09/30 06:40:22;;;;;;;17.27;8.57;;;13.10;99.90;;;;;;5075115;28;20278;-66
2023/09/30 06:42:47;;;;;;;16.90;8.73;;;13.20;99.90;;;;;;5074204;28;20574;-66
2023/09/30 06:45:13;;;;;;;15.00;8.00;;;13.30;99.90;;;;;;5074190;28;20290;-67
2023/09/30 06:47:41;;;;;;;16.73;8.60;;;13.30;99.90;;;;;;5076082;28;20075;-66
2023/09/30 06:50:12;;;;;;;17.70;8.23;;;13.40;99.90;;;;;;5075266;28;20410;-67
2023/09/30 06:52:41;;;;;;;18.17;9.30;;;13.40;99.90;;;;;;5075978;28;20285;-67
2023/09/30 06:55:07;;;;;;;17.80;9.83;;;13.50;99.90;;;;;;5075027;28;20305;-67
2023/09/30 06:57:37;;;;;;;15.70;8.63;;;13.60;99.90;;;;;;5075054;28;20285;-67
2023/09/30 07:00:11;;;;;;;17.03;8.50;;;13.60;99.90;;;;;;5075027;28;20279;-67
2023/09/30 07:02:38;;;;;;;21.77;10.80;;;13.60;99.90;;;;;;5075090;28;20052;-67
2023/09/30 07:05:11;;;;;;;18.37;9.00;;;13.70;99.90;;;;;;5074954;28;20282;-67
2023/09/30 07:07:37;;;;;;;15.60;8.90;;;14.00;99.90;;;;;;5075111;28;20059;-67
2023/09/30 07:10:04;;;;;;;13.40;7.90;;;14.60;99.90;;;;;;5074774;28;20271;-67
2023/09/30 07:12:31;;;;;;;13.20;7.67;;;15.20;99.90;;;;;;5073604;28;20052;-67
2023/09/30 07:14:57;;;;;;;15.37;8.40;;;15.80;99.90;;;;;;5074630;28;20049;-67
2023/09/30 07:17:23;;;;;;;18.00;7.87;;;16.20;99.90;;;;;;5073324;28;20056;-67
2023/09/30 07:19:49;;;;;;;15.83;7.80;;;16.30;99.90;;;;;;5074573;28;20052;-67
2023/09/30 07:22:15;;;;;;;13.30;7.83;;;16.30;99.90;;;;;;5074540;28;20056;-67
2023/09/30 07:24:40;;;;;;;14.67;7.63;;;16.20;99.90;;;;;;5074544;28;20144;-66
2023/09/30 07:27:06;;;;;;;14.17;7.67;;;16.20;99.90;;;;;;5074506;28;20151;-66
2023/09/30 07:29:33;;;;;;;15.10;8.30;;;16.10;99.90;;;;;;5074421;28;20448;-66
2023/09/30 07:31:59;;;;;;;13.60;7.73;;;16.00;99.90;;;;;;5073195;28;20050;-66
2023/09/30 07:34:24;;;;;;;18.97;8.83;;;16.00;99.90;;;;;;5074468;28;20135;-66
2023/09/30 07:36:50;;;;;;;16.67;7.90;;;16.00;99.90;;;;;;5074281;28;20497;-66
2023/09/30 07:39:17;;;;;;;13.30;8.47;;;16.00;99.90;;;;;;5074249;28;20048;-66
2023/09/30 07:41:43;;;;;;;16.77;8.57;;;16.00;99.90;;;;;;5073857;28;20125;-66
2023/09/30 07:44:09;;;;;;;13.80;7.47;;;16.00;99.90;;;;;;5074718;28;20473;-66
2023/09/30 07:46:35;;;;;;;16.43;8.00;;;16.10;99.90;;;;;;5074140;28;20096;-66
2023/09/30 07:49:03;;;;;;;14.87;8.67;;;16.10;99.90;;;;;;5074125;28;20405;-66
2023/09/30 07:51:29;;;;;;;13.97;8.20;;;16.10;99.90;;;;;;5074083;28;20071;-66
2023/09/30 07:53:56;;;;;;;16.70;8.60;;;16.20;99.90;;;;;;5073802;28;20132;-66
2023/09/30 07:56:22;;;;;;;14.37;8.30;;;16.20;99.90;;;;;;5073950;28;20056;-66
2023/09/30 07:58:48;;;;;;;18.57;8.10;;;16.30;99.90;;;;;;5073902;28;20044;-65
2023/09/30 08:01:14;;;;;;;13.23;7.67;;;16.30;99.90;;;;;;5074425;28;20055;-66
2023/09/30 08:03:41;;;;;;;15.03;8.27;;;16.30;99.90;;;;;;5072943;28;20052;-66
2023/09/30 08:06:09;;;;;;;16.30;6.83;;;16.40;99.90;;;;;;5073903;28;20047;-65
2023/09/30 08:08:36;;;;;;;15.03;8.43;;;16.40;99.90;;;;;;5073570;28;20051;-66
2023/09/30 08:11:02;;;;;;;14.37;7.60;;;16.50;99.90;;;;;;5074310;28;20111;-65
2023/09/30 08:13:29;;;;;;;11.40;6.57;;;16.60;99.90;;;;;;5073739;28;20140;-66
2023/09/30 08:15:55;;;;;;;13.07;7.53;;;16.60;99.90;;;;;;5073600;28;20484;-66
2023/09/30 08:18:21;;;;;;;14.97;8.50;;;16.70;99.90;;;;;;5074341;28;20445;-66
2023/09/30 08:20:47;;;;;;;16.37;8.03;;;16.70;99.90;;;;;;5074072;28;20095;-66
2023/09/30 08:23:13;;;;;;;16.17;8.33;;;16.80;99.90;;;;;;5073790;28;20040;-67
2023/09/30 08:25:39;;;;;;;13.73;7.57;;;16.80;99.90;;;;;;5073538;28;20040;-65
2023/09/30 08:28:05;;;;;;;14.67;7.33;;;16.80;99.90;;;;;;5074037;28;20110;-65
2023/09/30 08:30:33;;;;;;;14.37;6.60;;;16.90;99.90;;;;;;5073526;28;20045;-65
2023/09/30 08:32:59;;;;;;;15.20;6.63;;;16.90;99.90;;;;;;5073772;28;20048;-66
2023/09/30 08:35:25;;;;;;;15.53;7.23;;;16.90;99.90;;;;;;5073639;28;20060;-66
2023/09/30 08:37:51;;;;;;;15.90;6.37;;;16.90;99.90;;;;;;5073488;28;20079;-65
2023/09/30 08:40:22;;;;;;;14.10;6.87;;;16.90;99.90;;;;;;5073924;28;20076;-67
2023/09/30 08:42:54;;;;;;;16.30;6.93;;;16.90;99.90;;;;;;5073417;28;20091;-67
2023/09/30 08:45:20;;;;;;;11.87;5.73;;;17.00;99.90;;;;;;5073340;28;20045;-67
2023/09/30 08:47:46;;;;;;;17.90;6.37;;;17.00;99.90;;;;;;5073433;28;20060;-67
2023/09/30 08:50:13;;;;;;;15.77;6.90;;;17.00;99.90;;;;;;5073370;28;20041;-67
2023/09/30 08:52:44;;;;;;;11.70;5.90;;;17.00;99.90;;;;;;5073882;28;20084;-67
2023/09/30 08:55:12;;;;;;;14.17;6.57;;;17.10;99.90;;;;;;5072911;28;20128;-68
2023/09/30 08:57:42;;;;;;;16.07;5.93;;;17.10;99.90;;;;;;5073289;28;20044;-67
2023/09/30 09:00:12;;;;;;;15.43;7.40;;;17.20;99.90;;;;;;5073299;28;20524;-67
2023/09/30 09:02:39;;;;;;;14.03;6.57;;;17.20;99.90;;;;;;5073486;28;20402;-67
2023/09/30 09:05:06;;;;;;;14.03;6.13;;;17.20;99.90;;;;;;5073233;28;20047;-67
2023/09/30 09:07:33;;;;;;;11.83;5.30;;;17.20;99.90;;;;;;5073255;28;20127;-66
2023/09/30 09:10:05;;;;;;;13.70;5.90;;;17.30;99.90;;;;;;5073185;28;20044;-67
2023/09/30 09:12:33;;;;;;;15.30;4.67;;;17.30;99.90;;;;;;5073111;28;20052;-69
2023/09/30 09:14:58;;;;;;;14.50;4.33;;;17.30;99.90;;;;;;5073038;28;20048;-66
2023/09/30 09:17:41;;;;;;;13.63;4.53;;;17.30;99.90;;;;;;5073156;28;20053;-66
2023/09/30 09:20:09;;;;;;;15.00;3.93;;;17.30;99.90;;;;;;5073198;28;20101;-66
2023/09/30 09:22:43;;;;;;;16.43;5.03;;;17.30;99.90;;;;;;5073054;28;20045;-66
2023/09/30 09:25:10;;;;;;;13.43;4.23;;;17.40;99.90;;;;;;5073075;28;20032;-66
2023/09/30 09:27:37;;;;;;;13.47;4.50;;;17.40;99.90;;;;;;5072962;28;20052;-65
2023/09/30 09:30:19;;;;;;;15.03;4.97;;;17.40;99.90;;;;;;5073023;28;20054;-67
2023/09/30 09:32:54;;;;;;;13.37;4.87;;;17.50;99.90;;;;;;5073785;28;20045;-66
2023/09/30 09:35:21;;;;;;;15.07;4.82;;;17.50;99.90;;;;;;5073498;28;20041;-65
2023/09/30 09:38:01;;;;;;;16.43;5.70;;;17.60;99.90;;;;;;5072993;28;20048;-66
2023/09/30 09:40:29;;;;;;;12.20;3.97;;;17.60;99.90;;;;;;5072518;28;20045;-66
2023/09/30 09:42:56;;;;;;;12.63;3.73;;;17.60;99.90;;;;;;5076430;28;20049;-66
2023/09/30 09:45:24;;;;;;;14.77;4.10;;;17.60;99.90;;;;;;5076997;28;20048;-67
2023/09/30 09:47:51;;;;;;;13.77;3.30;;;17.60;99.90;;;;;;5076411;28;20041;-66
2023/09/30 09:50:19;;;;;;;10.43;3.37;;;17.60;99.90;;;;;;5076321;28;20392;-66
2023/09/30 09:52:47;;;;;;;10.30;3.50;;;17.70;99.90;;;;;;5076333;28;20056;-65
2023/09/30 09:55:16;;;;;;;14.67;3.47;;;17.70;99.90;;;;;;5077034;28;20059;-66
2023/09/30 09:57:42;;;;;;;8.50;2.60;;;17.70;99.90;;;;;;5076996;28;20044;-65
2023/09/30 10:00:14;;;;;;;11.53;2.90;;;17.80;99.90;;;;;;5076977;28;20199;-65
2023/09/30 10:02:42;;;;;;;13.17;3.80;;;17.80;99.90;;;;;;5076095;28;20041;-65
2023/09/30 10:05:11;;;;;;;11.10;3.43;;;17.80;99.90;;;;;;5075897;28;20055;-65
2023/09/30 10:07:47;;;;;;;9.47;2.57;;;17.80;99.90;;;;;;5076305;28;20049;-66
2023/09/30 10:10:16;;;;;;;9.30;2.30;;;17.80;99.90;;;;;;5076607;28;20377;-66
2023/09/30 10:12:42;;;;;;;9.27;2.67;;;17.80;99.90;;;;;;5075936;28;20056;-66
2023/09/30 10:15:26;;;;;;;12.03;3.13;;;17.80;99.90;;;;;;5075841;28;20044;-65
2023/09/30 10:18:06;;;;;;;8.77;2.47;;;17.90;99.90;;;;;;5075941;28;20056;-67
2023/09/30 10:20:34;;;;;;;10.27;2.10;;;17.90;99.90;;;;;;5075789;28;20136;-67
2023/09/30 10:23:21;;;;;;;11.03;2.40;;;18.10;99.90;;;;;;5075800;28;20392;-67
2023/09/30 10:25:48;;;;;;;11.70;2.57;;;18.20;99.90;;;;;;5075658;28;20135;-66
2023/09/30 10:28:38;;;;;;;11.10;3.00;;;18.20;99.90;;;;;;5075965;28;20082;-66
2023/09/30 10:31:19;;;;;;;11.37;2.83;;;18.30;99.90;;;;;;5074669;28;20086;-69
2023/09/30 10:36:28;;;;;;;11.37;2.30;;;18.40;99.90;;;;;;5075577;28;20049;-65
2023/09/30 10:38:55;;;;;;;10.60;2.40;;;18.50;99.90;;;;;;5075502;28;20048;-66
2023/09/30 10:41:39;;;;;;;15.73;3.07;;;18.50;99.90;;;;;;5075433;28;20048;-65
2023/09/30 10:44:26;;;;;;;7.97;2.83;;;18.40;99.90;;;;;;5074443;28;20443;-66
2023/09/30 10:46:53;;;;;;;15.27;2.60;;;18.30;99.90;;;;;;5075301;28;20052;-65
2023/09/30 10:49:25;;;;;;;14.90;3.13;;;18.10;99.90;;;;;;5075320;28;20056;-65
2023/09/30 10:51:52;;;;;;;11.30;2.43;;;18.00;99.90;;;;;;5075046;28;20116;-68
2023/09/30 10:54:28;;;;;;;12.03;2.57;;;17.80;99.90;;;;;;5075054;28;20048;-66
2023/09/30 10:56:55;;;;;;;12.10;2.50;;;17.70;99.90;;;;;;5075267;28;20507;-65
2023/09/30 10:59:24;;;;;;;13.30;2.37;;;17.70;99.90;;;;;;5074148;28;20102;-66
2023/09/30 11:01:51;;;;;;;13.83;2.80;;;17.70;99.90;;;;;;5075078;28;20121;-65
2023/09/30 11:04:18;;;;;;;10.67;2.47;;;17.80;99.90;;;;;;5074853;28;20052;-66
2023/09/30 11:06:44;;;;;;;11.53;2.77;;;17.90;99.90;;;;;;5074491;28;20064;-66
2023/09/30 11:09:16;;;;;;;13.07;2.40;;;18.00;99.90;;;;;;5074717;28;20417;-66
2023/09/30 11:11:51;;;;;;;11.33;2.87;;;18.10;99.90;;;;;;5075387;28;20389;-66
2023/09/30 11:14:29;;;;;;;7.75;2.17;;;18.20;99.90;;;;;;5073623;28;20417;-66
2023/09/30 11:17:03;;;;;;;10.43;2.77;;;18.20;99.90;;;;;;5074241;28;20140;-66
2023/09/30 11:19:45;;;;;;;10.52;2.20;;;18.10;99.90;;;;;;5075163;28;20043;-65
2023/09/30 11:22:11;;;;;;;7.87;2.23;;;18.10;99.90;;;;;;5074780;28;20040;-66
2023/09/30 11:24:37;;;;;;;15.20;3.13;;;18.10;99.90;;;;;;5074259;28;20110;-66
2023/09/30 11:27:04;;;;;;;6.87;2.40;;;18.10;99.90;;;;;;5074074;28;20081;-66
2023/09/30 11:29:29;;;;;;;9.43;2.70;;;18.10;99.90;;;;;;5073797;28;20423;-66
2023/09/30 11:31:55;;;;;;;8.60;2.43;;;18.10;99.90;;;;;;5072936;28;20044;-66
2023/09/30 11:34:34;;;;;;;7.33;2.00;;;18.10;99.90;;;;;;5074509;28;20052;-66
2023/09/30 11:37:01;;;;;;;9.87;2.20;;;18.10;99.90;;;;;;5074499;28;20048;-66
2023/09/30 11:39:30;;;;;;;11.47;2.87;;;18.10;99.90;;;;;;5074726;28;20048;-66
2023/09/30 11:41:57;;;;;;;8.63;2.37;;;18.10;99.90;;;;;;5074002;28;20048;-65
2023/09/30 11:44:26;;;;;;;7.03;2.27;;;18.00;99.90;;;;;;5074035;28;20044;-65
2023/09/30 11:47:04;;;;;;;9.60;2.20;;;18.00;99.90;;;;;;5074229;28;20049;-66
2023/09/30 11:49:40;;;;;;;12.77;2.80;;;18.00;99.90;;;;;;5074087;28;20166;-65
2023/09/30 11:52:13;;;;;;;8.07;2.13;;;18.00;99.90;;;;;;5073568;28;20549;-65
2023/09/30 11:54:44;;;;;;;7.60;2.40;;;18.10;99.90;;;;;;5073894;28;20419;-66
2023/09/30 11:57:11;;;;;;;12.27;2.73;;;18.10;99.90;;;;;;5073814;28;20536;-65
2023/09/30 11:59:39;;;;;;;11.23;2.80;;;18.10;99.90;;;;;;5073899;28;20052;-66
2023/09/30 12:02:10;;;;;;;9.53;2.60;;;18.10;99.90;;;;;;5074035;28;20075;-66
2023/09/30 12:04:39;;;;;;;8.50;2.30;;;18.10;99.90;;;;;;5073858;28;20033;-65
2023/09/30 12:07:08;;;;;;;8.47;2.40;;;18.20;99.90;;;;;;5073682;28;20044;-66
2023/09/30 12:09:36;;;;;;;11.10;2.50;;;18.20;99.90;;;;;;5073745;28;20040;-66
2023/09/30 12:12:03;;;;;;;9.10;2.33;;;18.30;99.90;;;;;;5073641;28;20055;-66
2023/09/30 12:14:32;;;;;;;10.00;2.07;;;18.30;99.90;;;;;;5073530;28;20444;-66
2023/09/30 12:16:57;;;;;;;11.33;3.03;;;18.30;99.90;;;;;;5072926;28;20484;-66
2023/09/30 12:19:24;;;;;;;9.43;2.60;;;18.30;99.90;;;;;;5074160;28;20117;-69
2023/09/30 12:21:50;;;;;;;8.97;2.10;;;18.30;99.90;;;;;;5073086;28;20346;-66
2023/09/30 12:24:17;;;;;;;11.17;2.30;;;18.30;99.90;;;;;;5073496;28;20123;-65
2023/09/30 12:26:49;;;;;;;7.37;2.10;;;18.40;99.90;;;;;;5073387;28;20048;-66
2023/09/30 12:29:18;;;;;;;14.03;2.40;;;18.50;99.90;;;;;;5073440;28;20040;-66
2023/09/30 12:31:48;;;;;;;9.30;2.33;;;18.50;99.90;;;;;;5073214;28;20045;-66
2023/09/30 12:34:15;;;;;;;11.67;3.33;;;18.50;99.90;;;;;;5073749;28;20048;-66
2023/09/30 12:36:41;;;;;;;11.00;2.80;;;18.50;99.90;;;;;;5074013;28;20048;-66
2023/09/30 12:39:11;;;;;;;9.43;2.83;;;18.60;99.90;;;;;;5073295;28;20102;-66
2023/09/30 12:41:46;;;;;;;10.97;2.67;;;18.60;99.90;;;;;;5073076;28;20131;-66
2023/09/30 12:44:11;;;;;;;7.03;2.08;;;18.60;99.90;;;;;;5073062;28;20044;-66